createdAt,value
2018-07-31T00:00:23.165Z,65.69
2018-07-31T00:01:23.169Z,66.75
2018-07-31T00:02:23.173Z,65.66
2018-07-31T00:03:23.210Z,66.04
2018-07-31T00:04:23.180Z,65.85
2018-07-31T00:05:23.187Z,65.69
2018-07-31T00:06:23.189Z,66.08
2018-07-31T00:07:23.192Z,65.98
2018-07-31T00:08:23.194Z,65.69
2018-07-31T00:09:23.199Z,65.95
2018-07-31T00:10:23.211Z,66.33
2018-07-31T00:11:23.208Z,66.52
2018-07-31T00:12:23.210Z,66.14
2018-07-31T00:13:23.213Z,65.85
2018-07-31T00:14:23.218Z,67.00
2018-07-31T00:15:23.223Z,65.75
2018-07-31T00:16:23.226Z,65.85
2018-07-31T00:17:23.230Z,65.85
2018-07-31T00:18:23.233Z,65.66
2018-07-31T00:19:23.237Z,65.66
2018-07-31T00:20:23.241Z,65.66
2018-07-31T00:21:23.245Z,66.33
2018-07-31T00:22:23.247Z,66.04
2018-07-31T00:23:23.251Z,65.75
2018-07-31T00:24:23.255Z,65.95
2018-07-31T00:25:23.259Z,66.43
2018-07-31T00:26:23.262Z,66.43
2018-07-31T00:27:23.265Z,65.85
2018-07-31T00:28:23.271Z,66.24
2018-07-31T00:29:23.273Z,65.66
2018-07-31T00:30:23.278Z,65.85
2018-07-31T00:31:23.281Z,65.95
2018-07-31T00:32:23.285Z,65.95
2018-07-31T00:33:23.291Z,65.01
2018-07-31T00:34:23.292Z,65.66
2018-07-31T00:35:23.295Z,65.37
2018-07-31T00:36:23.300Z,65.47
2018-07-31T00:37:23.304Z,65.66
2018-07-31T00:38:23.307Z,66.43
2018-07-31T00:39:23.311Z,66.52
2018-07-31T00:40:23.314Z,66.52
2018-07-31T00:41:23.320Z,65.75
2018-07-31T00:42:23.321Z,66.62
2018-07-31T00:43:23.324Z,67.30
2018-07-31T00:44:23.330Z,67.00
2018-07-31T00:45:23.333Z,68.07
2018-07-31T00:46:23.337Z,67.26
2018-07-31T00:47:23.339Z,66.82
2018-07-31T00:48:23.342Z,67.46
2018-07-31T00:49:23.346Z,67.49
2018-07-31T00:50:23.350Z,67.10
2018-07-31T00:51:23.352Z,67.26
2018-07-31T00:52:23.355Z,67.10
2018-07-31T00:53:23.359Z,67.40
2018-07-31T00:54:23.362Z,67.26
2018-07-31T00:55:23.371Z,67.46
2018-07-31T00:56:23.370Z,67.26
2018-07-31T00:57:23.373Z,67.30
2018-07-31T00:58:23.376Z,67.30
2018-07-31T00:59:23.380Z,66.91
2018-07-31T01:00:23.384Z,67.00
2018-07-31T01:01:23.388Z,66.62
2018-07-31T01:02:23.390Z,66.62
2018-07-31T01:03:23.394Z,67.10
2018-07-31T01:04:23.399Z,66.72
2018-07-31T01:05:23.401Z,67.10
2018-07-31T01:06:23.404Z,67.20
2018-07-31T01:07:23.408Z,66.82
2018-07-31T01:08:23.411Z,67.46
2018-07-31T01:09:23.415Z,67.84
2018-07-31T01:10:23.419Z,67.36
2018-07-31T01:11:23.425Z,67.36
2018-07-31T01:12:23.426Z,67.94
2018-07-31T01:13:23.429Z,68.23
2018-07-31T01:14:23.432Z,68.90
2018-07-31T01:15:23.445Z,68.71
2018-07-31T01:16:23.439Z,68.90
2018-07-31T01:17:23.444Z,68.61
2018-07-31T01:18:23.445Z,68.71
2018-07-31T01:19:23.450Z,69.48
2018-07-31T01:20:23.452Z,69.87
2018-07-31T01:21:23.457Z,70.06
2018-07-31T01:22:23.459Z,69.45
2018-07-31T01:23:23.462Z,69.64
2018-07-31T01:24:23.467Z,69.83
2018-07-31T01:25:23.469Z,69.57
2018-07-31T01:26:23.472Z,69.45
2018-07-31T01:27:23.476Z,69.35
2018-07-31T01:28:23.480Z,69.09
2018-07-31T01:29:23.483Z,69.48
2018-07-31T01:30:23.485Z,68.71
2018-07-31T01:31:23.489Z,68.80
2018-07-31T01:32:23.492Z,69.29
2018-07-31T01:33:23.499Z,69.19
2018-07-31T01:34:23.498Z,68.61
2018-07-31T01:35:23.501Z,69.09
2018-07-31T01:36:23.505Z,68.80
2018-07-31T01:37:23.508Z,68.71
2018-07-31T01:38:23.511Z,68.23
2018-07-31T01:39:23.514Z,68.80
2018-07-31T01:40:23.518Z,68.71
2018-07-31T01:41:23.522Z,68.90
2018-07-31T01:42:23.523Z,68.71
2018-07-31T01:43:23.527Z,68.80
2018-07-31T01:44:23.531Z,68.80
2018-07-31T01:45:23.533Z,68.52
2018-07-31T01:46:23.537Z,68.99
2018-07-31T01:47:23.543Z,68.71
2018-07-31T01:48:23.543Z,68.61
2018-07-31T01:49:23.546Z,69.19
2018-07-31T01:50:23.550Z,69.29
2018-07-31T01:51:23.552Z,69.83
2018-07-31T01:52:23.561Z,69.09
2018-07-31T01:53:23.560Z,69.38
2018-07-31T01:54:23.563Z,68.80
2018-07-31T01:55:23.565Z,69.38
2018-07-31T01:56:23.571Z,69.09
2018-07-31T01:57:23.573Z,69.35
2018-07-31T01:58:23.575Z,69.35
2018-07-31T01:59:23.578Z,70.02
2018-07-31T02:00:23.581Z,70.12
2018-07-31T02:01:23.585Z,69.83
2018-07-31T02:02:23.587Z,70.21
2018-07-31T02:03:23.590Z,69.64
2018-07-31T02:04:23.593Z,70.50
2018-07-31T02:05:23.598Z,69.73
2018-07-31T02:06:23.600Z,70.60
2018-07-31T02:07:23.603Z,69.83
2018-07-31T02:08:23.607Z,69.73
2018-07-31T02:09:23.610Z,69.93
2018-07-31T02:10:23.631Z,69.83
2018-07-31T02:11:23.616Z,69.54
2018-07-31T02:12:23.618Z,69.64
2018-07-31T02:13:23.622Z,69.45
2018-07-31T02:14:23.625Z,69.73
2018-07-31T02:15:23.628Z,70.12
2018-07-31T02:16:23.631Z,69.45
2018-07-31T02:17:23.709Z,70.50
2018-07-31T02:18:23.637Z,69.73
2018-07-31T02:19:23.641Z,70.21
2018-07-31T02:20:23.644Z,70.89
2018-07-31T02:21:23.647Z,70.60
2018-07-31T02:22:23.650Z,70.31
2018-07-31T02:23:23.653Z,69.64
2018-07-31T02:24:23.656Z,70.31
2018-07-31T02:25:23.660Z,70.50
2018-07-31T02:26:23.660Z,70.89
2018-07-31T02:27:23.665Z,70.50
2018-07-31T02:28:23.803Z,70.21
2018-07-31T02:29:23.670Z,70.60
2018-07-31T02:30:23.673Z,70.31
2018-07-31T02:31:23.678Z,70.70
2018-07-31T02:32:23.681Z,70.89
2018-07-31T02:33:23.683Z,70.60
2018-07-31T02:34:23.686Z,70.60
2018-07-31T02:35:23.690Z,70.12
2018-07-31T02:36:23.692Z,71.18
2018-07-31T02:37:23.696Z,70.50
2018-07-31T02:38:23.698Z,70.41
2018-07-31T02:39:23.702Z,70.89
2018-07-31T02:40:23.704Z,70.70
2018-07-31T02:41:23.708Z,70.37
2018-07-31T02:42:23.709Z,70.47
2018-07-31T02:43:23.713Z,70.86
2018-07-31T02:44:23.718Z,70.66
2018-07-31T02:45:23.720Z,71.04
2018-07-31T02:46:23.722Z,71.34
2018-07-31T02:47:23.724Z,71.04
2018-07-31T02:48:23.728Z,71.53
2018-07-31T02:49:23.731Z,71.43
2018-07-31T02:50:23.733Z,71.72
2018-07-31T02:51:23.737Z,72.59
2018-07-31T02:52:23.739Z,72.20
2018-07-31T02:53:23.744Z,72.11
2018-07-31T02:54:23.744Z,72.01
2018-07-31T02:55:23.747Z,72.68
2018-07-31T02:56:23.751Z,72.59
2018-07-31T02:57:23.754Z,71.62
2018-07-31T02:58:23.757Z,71.91
2018-07-31T02:59:23.759Z,72.97
2018-07-31T03:00:23.760Z,72.39
2018-07-31T03:01:23.765Z,72.39
2018-07-31T03:02:23.768Z,72.30
2018-07-31T03:03:23.770Z,72.20
2018-07-31T03:04:23.773Z,73.55
2018-07-31T03:05:23.777Z,73.16
2018-07-31T03:06:23.779Z,73.16
2018-07-31T03:07:23.781Z,73.55
2018-07-31T03:08:23.785Z,72.11
2018-07-31T03:09:23.788Z,72.68
2018-07-31T03:10:23.789Z,72.78
2018-07-31T03:11:23.795Z,72.68
2018-07-31T03:12:23.796Z,72.59
2018-07-31T03:13:23.799Z,72.17
2018-07-31T03:14:23.801Z,72.59
2018-07-31T03:15:23.804Z,72.30
2018-07-31T03:16:23.807Z,73.07
2018-07-31T03:17:23.809Z,72.84
2018-07-31T03:18:23.812Z,72.30
2018-07-31T03:19:23.814Z,72.97
2018-07-31T03:20:23.818Z,73.07
2018-07-31T03:21:23.821Z,73.07
2018-07-31T03:22:23.823Z,72.39
2018-07-31T03:23:23.825Z,72.20
2018-07-31T03:24:23.828Z,72.11
2018-07-31T03:25:23.836Z,72.39
2018-07-31T03:26:23.834Z,72.20
2018-07-31T03:27:23.837Z,73.07
2018-07-31T03:28:23.844Z,72.97
2018-07-31T03:29:23.844Z,72.59
2018-07-31T03:30:23.846Z,73.07
2018-07-31T03:31:23.848Z,72.20
2018-07-31T03:32:23.851Z,72.49
2018-07-31T03:33:23.853Z,72.30
2018-07-31T03:34:23.855Z,72.30
2018-07-31T03:35:23.859Z,72.30
2018-07-31T03:36:23.862Z,72.68
2018-07-31T03:37:23.868Z,72.49
2018-07-31T03:38:23.867Z,73.55
2018-07-31T03:39:23.869Z,73.26
2018-07-31T03:40:23.873Z,73.16
2018-07-31T03:41:23.876Z,73.74
2018-07-31T03:42:23.876Z,73.99
2018-07-31T03:43:23.880Z,73.99
2018-07-31T03:44:23.882Z,73.99
2018-07-31T03:45:23.884Z,73.90
2018-07-31T03:46:23.887Z,73.80
2018-07-31T03:47:23.891Z,73.99
2018-07-31T03:48:23.893Z,73.61
2018-07-31T03:49:23.895Z,74.19
2018-07-31T03:50:23.898Z,73.99
2018-07-31T03:51:23.900Z,74.38
2018-07-31T03:52:23.902Z,73.90
2018-07-31T03:53:23.906Z,73.90
2018-07-31T03:54:23.909Z,73.80
2018-07-31T03:55:23.911Z,74.29
2018-07-31T03:56:23.949Z,74.09
2018-07-31T03:57:23.919Z,74.09
2018-07-31T03:58:23.919Z,74.57
2018-07-31T03:59:23.922Z,73.90
2018-07-31T04:00:23.924Z,74.09
2018-07-31T04:01:23.928Z,74.29
2018-07-31T04:02:23.929Z,73.55
2018-07-31T04:03:23.931Z,73.99
2018-07-31T04:04:23.933Z,74.09
2018-07-31T04:05:23.979Z,73.42
2018-07-31T04:06:23.939Z,73.90
2018-07-31T04:07:23.942Z,74.41
2018-07-31T04:08:23.945Z,74.41
2018-07-31T04:09:23.948Z,73.90
2018-07-31T04:10:23.950Z,73.61
2018-07-31T04:11:23.954Z,73.90
2018-07-31T04:12:23.955Z,73.71
2018-07-31T04:13:23.960Z,74.19
2018-07-31T04:14:23.960Z,73.99
2018-07-31T04:15:23.962Z,73.61
2018-07-31T04:16:23.965Z,73.80
2018-07-31T04:17:23.968Z,73.61
2018-07-31T04:18:23.971Z,73.99
2018-07-31T04:19:23.973Z,74.48
2018-07-31T04:20:23.975Z,74.96
2018-07-31T04:21:23.979Z,74.41
2018-07-31T04:22:23.979Z,74.29
2018-07-31T04:23:23.984Z,74.67
2018-07-31T04:24:23.987Z,74.67
2018-07-31T04:25:23.989Z,74.67
2018-07-31T04:26:23.995Z,74.13
2018-07-31T04:27:23.993Z,74.61
2018-07-31T04:28:23.996Z,74.51
2018-07-31T04:29:24.000Z,74.29
2018-07-31T04:30:24.001Z,74.96
2018-07-31T04:31:24.008Z,75.24
2018-07-31T04:32:24.008Z,75.73
2018-07-31T04:33:24.010Z,75.15
2018-07-31T04:34:24.014Z,74.86
2018-07-31T04:35:24.016Z,75.05
2018-07-31T04:36:24.018Z,76.01
2018-07-31T04:37:24.021Z,75.92
2018-07-31T04:38:24.023Z,75.34
2018-07-31T04:39:24.025Z,76.21
2018-07-31T04:40:24.032Z,76.11
2018-07-31T04:41:24.030Z,75.44
2018-07-31T04:42:24.056Z,75.82
2018-07-31T04:43:24.036Z,75.34
2018-07-31T04:44:24.039Z,75.73
2018-07-31T04:45:24.042Z,75.34
2018-07-31T04:46:24.044Z,76.21
2018-07-31T04:47:24.045Z,75.82
2018-07-31T04:48:24.048Z,75.24
2018-07-31T04:49:24.051Z,74.96
2018-07-31T04:50:24.084Z,75.05
2018-07-31T04:51:24.056Z,74.76
2018-07-31T04:52:24.059Z,75.28
2018-07-31T04:53:24.061Z,75.34
2018-07-31T04:54:24.063Z,75.09
2018-07-31T04:55:24.066Z,74.71
2018-07-31T04:56:24.070Z,74.80
2018-07-31T04:57:24.071Z,74.32
2018-07-31T04:58:24.074Z,74.13
2018-07-31T04:59:24.125Z,74.22
2018-07-31T05:00:24.079Z,74.32
2018-07-31T05:01:24.082Z,74.90
2018-07-31T05:02:24.085Z,74.80
2018-07-31T05:03:24.086Z,75.09
2018-07-31T05:04:24.136Z,75.96
2018-07-31T05:05:24.092Z,76.11
2018-07-31T05:06:24.096Z,76.21
2018-07-31T05:07:24.098Z,76.21
2018-07-31T05:08:24.102Z,76.01
2018-07-31T05:09:24.103Z,76.25
2018-07-31T05:10:24.106Z,75.96
2018-07-31T05:11:24.111Z,76.15
2018-07-31T05:12:24.112Z,76.44
2018-07-31T05:13:24.114Z,76.25
2018-07-31T05:14:24.116Z,76.25
2018-07-31T05:15:24.119Z,75.96
2018-07-31T05:16:24.123Z,75.86
2018-07-31T05:17:24.125Z,75.57
2018-07-31T05:18:24.142Z,76.06
2018-07-31T05:19:24.130Z,75.57
2018-07-31T05:20:24.132Z,76.15
2018-07-31T05:21:24.138Z,76.09
2018-07-31T05:22:24.138Z,75.76
2018-07-31T05:23:24.142Z,74.90
2018-07-31T05:24:24.143Z,74.65
2018-07-31T05:25:24.148Z,74.84
2018-07-31T05:26:24.159Z,75.13
2018-07-31T05:27:24.153Z,74.65
2018-07-31T05:28:24.159Z,75.03
2018-07-31T05:29:24.159Z,75.13
2018-07-31T05:30:24.161Z,74.36
2018-07-31T05:31:24.163Z,74.55
2018-07-31T05:32:24.212Z,75.03
2018-07-31T05:33:24.170Z,75.23
2018-07-31T05:34:24.173Z,75.61
2018-07-31T05:35:24.178Z,76.38
2018-07-31T05:36:24.180Z,74.93
2018-07-31T05:37:24.183Z,75.32
2018-07-31T05:38:24.185Z,75.32
2018-07-31T05:39:24.188Z,75.65
2018-07-31T05:40:24.193Z,75.93
2018-07-31T05:41:24.196Z,76.23
2018-07-31T05:42:24.197Z,75.26
2018-07-31T05:43:24.201Z,74.58
2018-07-31T05:44:24.204Z,75.07
2018-07-31T05:45:24.208Z,75.36
2018-07-31T05:46:24.210Z,75.26
2018-07-31T05:47:24.214Z,74.68
2018-07-31T05:48:24.217Z,73.91
2018-07-31T05:49:24.221Z,74.49
2018-07-31T05:50:24.223Z,72.66
2018-07-31T05:51:24.227Z,72.31
2018-07-31T05:52:24.231Z,72.85
2018-07-31T05:53:24.233Z,72.12
2018-07-31T05:54:24.236Z,72.99
2018-07-31T05:55:24.240Z,72.31
2018-07-31T05:56:24.244Z,72.21
2018-07-31T05:57:24.297Z,71.58
2018-07-31T05:58:24.249Z,71.96
2018-07-31T05:59:24.253Z,72.15
2018-07-31T06:00:24.260Z,71.77
2018-07-31T06:01:24.262Z,71.38
2018-07-31T06:02:24.264Z,71.00
2018-07-31T06:03:24.308Z,71.58
2018-07-31T06:04:24.272Z,70.42
2018-07-31T06:05:24.276Z,69.64
2018-07-31T06:06:24.279Z,69.55
2018-07-31T06:07:24.281Z,71.28
2018-07-31T06:08:24.286Z,70.80
2018-07-31T06:09:24.290Z,70.42
2018-07-31T06:10:24.294Z,69.64
2018-07-31T06:11:24.335Z,70.42
2018-07-31T06:12:24.341Z,69.87
2018-07-31T06:13:24.351Z,70.26
2018-07-31T06:14:24.429Z,69.58
2018-07-31T06:15:24.457Z,69.97
2018-07-31T06:16:24.319Z,69.97
2018-07-31T06:17:24.321Z,70.26
2018-07-31T06:18:24.326Z,70.06
2018-07-31T06:19:24.327Z,69.78
2018-07-31T06:20:24.332Z,69.78
2018-07-31T06:21:24.336Z,70.64
2018-07-31T06:22:24.342Z,70.54
2018-07-31T06:23:24.342Z,70.54
2018-07-31T06:24:24.347Z,70.94
2018-07-31T06:25:24.351Z,71.42
2018-07-31T06:26:24.353Z,71.22
2018-07-31T06:27:24.359Z,70.68
2018-07-31T06:28:24.363Z,71.36
2018-07-31T06:29:24.367Z,71.06
2018-07-31T06:30:24.372Z,71.16
2018-07-31T06:31:24.373Z,71.16
2018-07-31T06:32:24.378Z,70.97
2018-07-31T06:33:24.384Z,71.06
2018-07-31T06:34:24.386Z,71.55
2018-07-31T06:35:24.392Z,71.06
2018-07-31T06:36:24.395Z,71.16
2018-07-31T06:37:24.406Z,71.97
2018-07-31T06:38:24.402Z,72.84
2018-07-31T06:39:24.410Z,72.06
2018-07-31T06:40:24.460Z,71.48
2018-07-31T06:41:24.416Z,70.32
2018-07-31T06:42:24.419Z,70.52
2018-07-31T06:43:24.535Z,71.48
2018-07-31T06:44:24.429Z,69.94
2018-07-31T06:45:24.432Z,69.65
2018-07-31T06:46:24.437Z,71.52
2018-07-31T06:47:24.441Z,72.00
2018-07-31T06:48:24.448Z,70.17
2018-07-31T06:49:24.487Z,69.88
2018-07-31T06:50:24.454Z,69.78
2018-07-31T06:51:24.458Z,69.10
2018-07-31T06:52:24.464Z,69.49
2018-07-31T06:53:24.468Z,69.49
2018-07-31T06:54:24.472Z,69.53
2018-07-31T06:55:24.477Z,68.95
2018-07-31T06:56:24.482Z,69.24
2018-07-31T06:57:24.485Z,69.82
2018-07-31T06:58:24.491Z,69.92
2018-07-31T06:59:24.496Z,68.56
2018-07-31T07:00:24.503Z,67.40
2018-07-31T07:01:24.505Z,68.27
2018-07-31T07:02:24.509Z,70.14
2018-07-31T07:03:24.514Z,68.98
2018-07-31T07:04:24.520Z,68.01
2018-07-31T07:05:24.524Z,66.17
2018-07-31T07:06:24.529Z,65.98
2018-07-31T07:07:24.533Z,66.27
2018-07-31T07:08:24.799Z,66.30
2018-07-31T07:09:24.611Z,66.11
2018-07-31T07:10:24.550Z,66.88
2018-07-31T07:11:24.552Z,67.85
2018-07-31T07:12:24.558Z,65.72
2018-07-31T07:13:24.562Z,65.24
2018-07-31T07:14:24.567Z,65.24
2018-07-31T07:15:24.625Z,67.08
2018-07-31T07:16:24.582Z,66.72
2018-07-31T07:17:24.585Z,65.14
2018-07-31T07:18:24.589Z,61.91
2018-07-31T07:19:24.601Z,59.05
2018-07-31T07:20:24.605Z,56.00
2018-07-31T07:21:24.613Z,53.72
2018-07-31T07:22:24.620Z,52.02
2018-07-31T07:23:24.627Z,52.04
2018-07-31T07:24:24.636Z,51.75
2018-07-31T07:25:24.645Z,50.12
2018-07-31T07:26:24.671Z,49.34
2018-07-31T07:27:24.662Z,48.88
2018-07-31T07:28:24.669Z,49.44
2018-07-31T07:29:24.679Z,50.51
2018-07-31T07:30:24.685Z,50.48
2018-07-31T07:31:24.693Z,51.04
2018-07-31T07:32:24.701Z,52.60
2018-07-31T07:33:24.708Z,52.77
2018-07-31T07:34:24.829Z,53.33
2018-07-31T07:35:24.726Z,54.89
2018-07-31T07:36:24.734Z,54.86
2018-07-31T07:37:24.742Z,54.76
2018-07-31T07:38:24.752Z,53.20
2018-07-31T07:39:24.760Z,53.79
2018-07-31T07:40:24.769Z,53.30
2018-07-31T07:41:24.776Z,53.40
2018-07-31T07:42:24.786Z,53.33
2018-07-31T07:43:24.793Z,53.33
2018-07-31T07:44:24.802Z,53.14
2018-07-31T07:45:24.814Z,52.38
2018-07-31T07:46:24.819Z,52.38
2018-07-31T07:47:24.831Z,53.85
2018-07-31T07:48:24.848Z,53.65
2018-07-31T07:49:24.900Z,53.36
2018-07-31T07:50:24.858Z,53.94
2018-07-31T07:51:24.875Z,51.99
2018-07-31T07:52:24.918Z,52.70
2018-07-31T07:53:24.888Z,53.26
2018-07-31T07:54:24.933Z,52.02
2018-07-31T07:55:24.906Z,51.70
2018-07-31T07:56:24.923Z,51.12
2018-07-31T07:57:24.926Z,52.19
2018-07-31T07:58:24.935Z,52.67
2018-07-31T07:59:24.953Z,52.67
2018-07-31T08:00:24.953Z,53.04
2018-07-31T08:01:24.962Z,53.04
2018-07-31T08:02:24.972Z,51.41
2018-07-31T08:03:24.981Z,51.99
2018-07-31T08:04:24.999Z,51.43
2018-07-31T08:05:25.001Z,52.02
2018-07-31T08:06:25.013Z,51.43
2018-07-31T08:07:25.024Z,50.38
2018-07-31T08:08:25.034Z,50.02
2018-07-31T08:09:25.045Z,49.27
2018-07-31T08:10:25.059Z,48.41
2018-07-31T08:11:25.070Z,48.61
2018-07-31T08:12:25.084Z,48.12
2018-07-31T08:13:25.096Z,49.22
2018-07-31T08:14:25.110Z,46.97
2018-07-31T08:15:25.122Z,46.89
2018-07-31T08:16:25.136Z,47.38
2018-07-31T08:17:25.150Z,48.09
2018-07-31T08:18:25.165Z,46.62
2018-07-31T08:19:25.179Z,45.57
2018-07-31T08:20:25.254Z,45.69
2018-07-31T08:21:25.210Z,45.30
2018-07-31T08:22:25.223Z,45.79
2018-07-31T08:23:25.298Z,45.42
2018-07-31T08:24:25.254Z,44.27
2018-07-31T08:25:25.272Z,43.41
2018-07-31T08:26:25.290Z,43.43
2018-07-31T08:27:25.303Z,40.88
2018-07-31T08:28:25.320Z,40.41
2018-07-31T08:29:25.336Z,42.08
2018-07-31T08:30:25.351Z,42.66
2018-07-31T08:31:25.369Z,42.47
2018-07-31T08:32:25.387Z,43.94
2018-07-31T08:33:25.437Z,43.05
2018-07-31T08:34:25.431Z,41.66
2018-07-31T08:35:25.436Z,41.09
2018-07-31T08:36:25.453Z,40.61
2018-07-31T08:37:25.473Z,41.19
2018-07-31T08:38:25.491Z,39.25
2018-07-31T08:39:25.506Z,39.15
2018-07-31T08:40:25.523Z,38.58
2018-07-31T08:41:25.561Z,37.52
2018-07-31T08:42:25.559Z,38.21
2018-07-31T08:43:25.602Z,36.93
2018-07-31T08:44:25.596Z,37.54
2018-07-31T08:45:25.612Z,36.67
2018-07-31T08:46:25.629Z,35.39
2018-07-31T08:47:25.647Z,37.65
2018-07-31T08:48:25.665Z,37.55
2018-07-31T08:49:25.685Z,38.05
2018-07-31T08:50:25.702Z,38.15
2018-07-31T08:51:25.720Z,36.69
2018-07-31T08:52:25.739Z,36.20
2018-07-31T08:53:25.758Z,37.54
2018-07-31T08:54:25.777Z,38.07
2018-07-31T08:55:25.795Z,39.23
2018-07-31T08:56:26.072Z,40.76
2018-07-31T08:57:25.835Z,42.21
2018-07-31T08:58:25.850Z,42.23
2018-07-31T08:59:25.870Z,41.05
2018-07-31T09:00:25.888Z,42.13
2018-07-31T09:01:25.906Z,40.66
2018-07-31T09:02:25.924Z,40.58
2018-07-31T09:03:25.941Z,41.21
2018-07-31T09:04:25.961Z,40.55
2018-07-31T09:05:25.978Z,39.98
2018-07-31T09:06:26.213Z,38.60
2018-07-31T09:07:26.040Z,38.96
2018-07-31T09:08:26.121Z,38.76
2018-07-31T09:09:26.052Z,41.80
2018-07-31T09:10:26.070Z,40.63
2018-07-31T09:11:26.351Z,40.63
2018-07-31T09:12:26.108Z,40.31
2018-07-31T09:13:26.124Z,41.80
2018-07-31T09:14:26.216Z,43.47
2018-07-31T09:15:26.160Z,40.94
2018-07-31T09:16:26.179Z,41.02
2018-07-31T09:17:26.231Z,42.10
2018-07-31T09:18:26.217Z,41.53
2018-07-31T09:19:26.233Z,41.55
2018-07-31T09:20:26.253Z,40.66
2018-07-31T09:21:26.270Z,40.56
2018-07-31T09:22:26.288Z,41.14
2018-07-31T09:23:26.305Z,42.08
2018-07-31T09:24:26.399Z,43.33
2018-07-31T09:25:26.342Z,43.41
2018-07-31T09:26:26.360Z,44.56
2018-07-31T09:27:26.378Z,44.85
2018-07-31T09:28:26.396Z,44.58
2018-07-31T09:29:26.415Z,43.52
2018-07-31T09:30:26.434Z,43.82
2018-07-31T09:31:26.448Z,44.84
2018-07-31T09:32:26.467Z,44.67
2018-07-31T09:33:26.483Z,43.76
2018-07-31T09:34:26.751Z,43.45
2018-07-31T09:35:26.721Z,43.52
2018-07-31T09:36:26.869Z,43.21
2018-07-31T09:37:26.555Z,43.82
2018-07-31T09:38:26.570Z,43.31
2018-07-31T09:39:26.590Z,43.70
2018-07-31T09:40:26.607Z,43.98
2018-07-31T09:41:26.624Z,43.88
2018-07-31T09:42:26.640Z,45.52
2018-07-31T09:43:26.657Z,45.62
2018-07-31T09:44:26.674Z,46.18
2018-07-31T09:45:26.693Z,45.03
2018-07-31T09:46:26.708Z,45.01
2018-07-31T09:47:26.725Z,45.40
2018-07-31T09:48:26.783Z,44.81
2018-07-31T09:49:26.760Z,45.89
2018-07-31T09:50:26.885Z,44.81
2018-07-31T09:51:26.835Z,44.71
2018-07-31T09:52:27.049Z,44.64
2018-07-31T09:53:26.962Z,44.44
2018-07-31T09:54:26.890Z,43.77
2018-07-31T09:55:26.857Z,43.70
2018-07-31T09:56:26.874Z,43.58
2018-07-31T09:57:26.890Z,42.21
2018-07-31T09:58:26.911Z,42.50
2018-07-31T09:59:26.923Z,42.31
2018-07-31T10:00:26.938Z,41.92
2018-07-31T10:01:26.957Z,42.52
2018-07-31T10:02:26.977Z,42.45
2018-07-31T10:03:26.986Z,42.35
2018-07-31T10:04:27.004Z,42.49
2018-07-31T10:05:27.021Z,43.59
2018-07-31T10:06:27.035Z,42.11
2018-07-31T10:07:27.052Z,39.35
2018-07-31T10:08:27.067Z,39.27
2018-07-31T10:09:27.085Z,39.78
2018-07-31T10:10:27.158Z,39.66
2018-07-31T10:11:27.115Z,39.25
2018-07-31T10:12:27.133Z,40.23
2018-07-31T10:13:27.150Z,40.61
2018-07-31T10:14:27.164Z,40.01
2018-07-31T10:15:27.183Z,41.08
2018-07-31T10:16:27.199Z,40.39
2018-07-31T10:17:27.216Z,41.39
2018-07-31T10:18:27.251Z,43.86
2018-07-31T10:19:27.249Z,41.61
2018-07-31T10:20:27.336Z,41.08
2018-07-31T10:21:27.368Z,42.23
2018-07-31T10:22:27.294Z,42.65
2018-07-31T10:23:27.369Z,41.58
2018-07-31T10:24:27.595Z,41.39
2018-07-31T10:25:27.366Z,40.61
2018-07-31T10:26:27.357Z,39.54
2018-07-31T10:27:27.372Z,38.17
2018-07-31T10:28:27.390Z,38.07
2018-07-31T10:29:27.405Z,39.27
2018-07-31T10:30:27.421Z,37.80
2018-07-31T10:31:27.436Z,37.98
2018-07-31T10:32:27.452Z,38.54
2018-07-31T10:33:27.469Z,39.33
2018-07-31T10:34:27.487Z,39.43
2018-07-31T10:35:27.506Z,39.82
2018-07-31T10:36:27.515Z,39.54
2018-07-31T10:37:27.535Z,38.96
2018-07-31T10:38:27.547Z,37.78
2018-07-31T10:39:27.562Z,37.98
2018-07-31T10:40:27.658Z,37.86
2018-07-31T10:41:27.595Z,36.70
2018-07-31T10:42:27.609Z,36.90
2018-07-31T10:43:27.623Z,36.62
2018-07-31T10:44:27.639Z,36.72
2018-07-31T10:45:27.657Z,37.70
2018-07-31T10:46:27.738Z,36.30
2018-07-31T10:47:27.685Z,36.58
2018-07-31T10:48:27.701Z,38.06
2018-07-31T10:49:27.717Z,37.29
2018-07-31T10:50:27.732Z,36.11
2018-07-31T10:51:27.748Z,35.21
2018-07-31T10:52:27.762Z,36.19
2018-07-31T10:53:27.782Z,37.98
2018-07-31T10:54:27.791Z,38.11
2018-07-31T10:55:27.807Z,37.92
2018-07-31T10:56:28.053Z,33.29
2018-07-31T10:57:27.837Z,31.92
2018-07-31T10:58:27.904Z,33.20
2018-07-31T10:59:27.868Z,34.87
2018-07-31T11:00:27.931Z,34.89
2018-07-31T11:01:27.901Z,32.92
2018-07-31T11:02:27.912Z,32.24
2018-07-31T11:03:27.929Z,34.31
2018-07-31T11:04:27.944Z,36.67
2018-07-31T11:05:27.960Z,33.94
2018-07-31T11:06:27.985Z,32.65
2018-07-31T11:07:27.990Z,31.26
2018-07-31T11:08:28.010Z,32.90
2018-07-31T11:09:28.023Z,33.89
2018-07-31T11:10:28.061Z,32.41
2018-07-31T11:11:28.051Z,34.77
2018-07-31T11:12:28.066Z,36.55
2018-07-31T11:13:28.084Z,34.78
2018-07-31T11:14:28.095Z,34.80
2018-07-31T11:15:28.112Z,34.92
2018-07-31T11:16:28.208Z,32.86
2018-07-31T11:17:28.164Z,34.25
2018-07-31T11:18:28.158Z,36.71
2018-07-31T11:19:28.196Z,35.23
2018-07-31T11:20:28.208Z,32.26
2018-07-31T11:21:28.204Z,31.18
2018-07-31T11:22:28.561Z,32.07
2018-07-31T11:23:28.238Z,31.87
2018-07-31T11:24:28.251Z,33.34
2018-07-31T11:25:28.272Z,30.90
2018-07-31T11:26:28.282Z,32.38
2018-07-31T11:27:28.348Z,31.18
2018-07-31T11:28:28.371Z,28.31
2018-07-31T11:29:28.328Z,31.97
2018-07-31T11:30:28.397Z,33.15
2018-07-31T11:31:28.358Z,32.07
2018-07-31T11:32:28.623Z,32.28
2018-07-31T11:33:28.391Z,29.13
2018-07-31T11:34:28.409Z,28.16
2018-07-31T11:36:01.631Z,27.86
2018-07-31T11:36:28.436Z,26.88
2018-07-31T11:37:28.455Z,25.01
2018-07-31T11:38:28.470Z,26.67
2018-07-31T11:39:28.483Z,29.43
2018-07-31T11:40:28.498Z,29.44
2018-07-31T11:41:28.513Z,29.06
2018-07-31T11:42:28.529Z,30.44
2018-07-31T11:43:28.544Z,32.31
2018-07-31T11:44:28.561Z,32.51
2018-07-31T11:45:28.575Z,31.03
2018-07-31T11:46:28.590Z,29.34
2018-07-31T11:47:28.608Z,29.24
2018-07-31T11:48:28.623Z,33.08
2018-07-31T11:49:28.638Z,31.92
2018-07-31T11:50:28.654Z,30.44
2018-07-31T11:51:28.669Z,29.27
2018-07-31T11:52:28.719Z,29.96
2018-07-31T11:53:28.700Z,28.77
2018-07-31T11:54:28.715Z,29.24
2018-07-31T11:55:28.730Z,31.80
2018-07-31T11:56:28.747Z,30.43
2018-07-31T11:57:28.762Z,31.23
2018-07-31T11:58:28.776Z,29.24
2018-07-31T11:59:28.792Z,28.55
2018-07-31T12:00:28.807Z,29.21
2018-07-31T12:01:28.824Z,29.69
2018-07-31T12:02:28.838Z,29.97
2018-07-31T12:03:28.855Z,31.04
2018-07-31T12:04:28.871Z,32.20
2018-07-31T12:05:28.883Z,31.79
2018-07-31T12:06:28.898Z,31.60
2018-07-31T12:07:28.912Z,32.18
2018-07-31T12:08:28.954Z,32.87
2018-07-31T12:09:28.943Z,33.26
2018-07-31T12:10:28.957Z,33.07
2018-07-31T12:11:28.976Z,33.95
2018-07-31T12:12:28.986Z,33.75
2018-07-31T12:13:29.001Z,32.69
2018-07-31T12:14:29.014Z,32.78
2018-07-31T12:15:29.029Z,33.07
2018-07-31T12:16:29.044Z,32.46
2018-07-31T12:17:29.059Z,32.86
2018-07-31T12:18:29.075Z,32.06
2018-07-31T12:19:29.085Z,33.25
2018-07-31T12:20:29.100Z,31.97
2018-07-31T12:21:29.115Z,33.75
2018-07-31T12:22:29.154Z,34.26
2018-07-31T12:23:29.157Z,32.02
2018-07-31T12:24:29.158Z,30.94
2018-07-31T12:25:29.170Z,31.04
2018-07-31T12:26:29.182Z,31.84
2018-07-31T12:27:29.200Z,33.31
2018-07-31T12:28:29.210Z,31.95
2018-07-31T12:29:29.224Z,31.16
2018-07-31T12:30:29.238Z,30.88
2018-07-31T12:31:29.553Z,29.21
2018-07-31T12:32:29.265Z,28.52
2018-07-31T12:33:29.286Z,30.40
2018-07-31T12:34:29.342Z,28.63
2018-07-31T12:35:29.308Z,29.33
2018-07-31T12:36:29.321Z,29.13
2018-07-31T12:37:29.336Z,28.93
2018-07-31T12:38:29.387Z,28.85
2018-07-31T12:39:29.364Z,27.66
2018-07-31T12:40:29.379Z,25.98
2018-07-31T12:41:29.393Z,24.79
2018-07-31T12:42:29.409Z,26.18
2018-07-31T12:43:29.422Z,24.80
2018-07-31T12:44:29.464Z,24.60
2018-07-31T12:45:29.448Z,26.37
2018-07-31T12:46:29.462Z,26.37
2018-07-31T12:47:29.477Z,27.17
2018-07-31T12:48:29.620Z,26.09
2018-07-31T12:49:29.506Z,24.71
2018-07-31T12:50:29.519Z,24.60
2018-07-31T12:51:29.546Z,27.74
2018-07-31T12:52:29.551Z,27.74